Time;durP1;ratioP1;P1;durP2;ratioP2;P2;SDS_P1;SDS_P2;PMS_P1;PMS_P2;Temp;Humidity;BMP_temperature;BMP_pressure;BME280_temperature;BME280_humidity;BME280_pressure;Samples;Min_cycle;Max_cycle;Signal;HPM_P1;HPM_P2
2022/12/16 00:01:46;;;;;;;9.57;4.60;;;;;;;;;;4921378;29;20039;-76
2022/12/16 00:04:12;;;;;;;11.37;5.67;;;;;;;;;;4936973;29;20464;-77
2022/12/16 00:06:37;;;;;;;6.10;3.40;;;;;;;;;;4921382;29;20039;-77
2022/12/16 00:09:03;;;;;;;6.10;3.87;;;;;;;;;;4920806;29;20035;-75
2022/12/16 00:11:30;;;;;;;13.70;5.73;;;;;;;;;;4919633;29;20031;-74
2022/12/16 00:13:56;;;;;;;7.27;4.03;;;;;;;;;;4935768;29;20054;-74
2022/12/16 00:16:22;;;;;;;12.57;5.53;;;;;;;;;;4919557;29;20035;-75
2022/12/16 00:18:48;;;;;;;11.10;4.90;;;;;;;;;;4935407;29;20489;-75
2022/12/16 00:21:13;;;;;;;11.50;5.27;;;;;;;;;;4919284;29;20054;-74
2022/12/16 00:23:40;;;;;;;3.77;2.43;;;;;;;;;;4919505;29;20038;-74
2022/12/16 00:26:06;;;;;;;9.43;4.83;;;;;;;;;;4920731;29;20382;-78
2022/12/16 00:28:32;;;;;;;9.53;4.77;;;;;;;;;;4921080;29;20038;-75
2022/12/16 00:30:58;;;;;;;10.27;5.13;;;;;;;;;;4921108;29;20094;-78
2022/12/16 00:33:25;;;;;;;5.77;3.30;;;;;;;;;;4921030;29;20414;-78
2022/12/16 00:35:50;;;;;;;10.10;4.90;;;;;;;;;;4937031;29;20110;-78
2022/12/16 00:38:16;;;;;;;6.03;3.47;;;;;;;;;;4936794;29;20139;-77
2022/12/16 00:40:42;;;;;;;10.27;4.07;;;;;;;;;;4920811;29;20035;-78
2022/12/16 00:43:08;;;;;;;5.90;3.10;;;;;;;;;;4936719;29;20031;-76
2022/12/16 00:45:34;;;;;;;7.90;4.50;;;;;;;;;;4939573;29;20105;-77
2022/12/16 00:47:59;;;;;;;10.93;5.37;;;;;;;;;;4924739;29;20474;-76
2022/12/16 00:50:25;;;;;;;6.00;3.17;;;;;;;;;;4924604;28;20039;-76
2022/12/16 00:52:52;;;;;;;10.93;5.13;;;;;;;;;;4940315;29;20382;-74
2022/12/16 00:55:18;;;;;;;8.90;4.17;;;;;;;;;;4924537;29;20043;-75
2022/12/16 00:57:43;;;;;;;12.77;6.03;;;;;;;;;;4924509;29;20055;-75
2022/12/16 01:00:11;;;;;;;11.90;4.60;;;;;;;;;;4956328;29;20039;-70
2022/12/16 01:02:44;;;;;;;9.10;4.50;;;;;;;;;;4957207;28;20081;-70
2022/12/16 01:05:11;;;;;;;6.93;3.67;;;;;;;;;;4924221;29;20055;-70
2022/12/16 01:07:37;;;;;;;9.70;4.77;;;;;;;;;;4940121;29;20051;-71
2022/12/16 01:10:03;;;;;;;10.10;4.50;;;;;;;;;;4924445;29;20147;-72
2022/12/16 01:12:31;;;;;;;7.13;4.27;;;;;;;;;;4938768;29;20386;-72
2022/12/16 01:14:57;;;;;;;10.07;4.93;;;;;;;;;;4922233;29;20039;-71
2022/12/16 01:17:24;;;;;;;5.67;2.97;;;;;;;;;;4937755;29;20162;-70
2022/12/16 01:19:51;;;;;;;7.80;4.40;;;;;;;;;;4953763;29;20039;-70
2022/12/16 01:22:16;;;;;;;8.77;3.97;;;;;;;;;;4937810;29;20032;-70
2022/12/16 01:24:43;;;;;;;7.73;4.47;;;;;;;;;;4953539;29;20050;-69
2022/12/16 01:27:09;;;;;;;7.83;4.30;;;;;;;;;;4939332;29;20117;-68
2022/12/16 01:29:34;;;;;;;10.33;4.57;;;;;;;;;;4923880;29;20103;-71
2022/12/16 01:32:00;;;;;;;8.37;4.50;;;;;;;;;;4924236;29;20078;-69
2022/12/16 01:34:28;;;;;;;8.40;4.40;;;;;;;;;;4923407;29;20129;-71
2022/12/16 01:36:54;;;;;;;6.77;3.67;;;;;;;;;;4922078;29;20042;-69
2022/12/16 01:39:20;;;;;;;8.87;4.73;;;;;;;;;;4937460;29;20043;-71
2022/12/16 01:41:46;;;;;;;7.33;4.10;;;;;;;;;;4921522;29;20045;-69
2022/12/16 01:44:14;;;;;;;9.63;4.13;;;;;;;;;;4937311;29;20130;-68
2022/12/16 01:46:39;;;;;;;8.57;4.23;;;;;;;;;;4922039;29;20146;-70
2022/12/16 01:49:09;;;;;;;10.27;4.70;;;;;;;;;;4937895;29;20035;-72
2022/12/16 01:51:41;;;;;;;9.75;3.80;;;;;;;;;;4922686;29;20039;-66
2022/12/16 01:54:10;;;;;;;8.83;4.43;;;;;;;;;;4939306;29;20039;-69
2022/12/16 01:56:39;;;;;;;6.23;3.33;;;;;;;;;;4937939;29;20035;-70
2022/12/16 01:59:05;;;;;;;6.90;3.97;;;;;;;;;;4956162;28;20055;-74
2022/12/16 02:01:31;;;;;;;6.93;3.60;;;;;;;;;;4939465;29;20426;-71
2022/12/16 02:04:00;;;;;;;6.27;3.53;;;;;;;;;;4923343;29;20051;-70
2022/12/16 02:06:26;;;;;;;11.67;4.73;;;;;;;;;;4923287;29;20038;-70
2022/12/16 02:08:54;;;;;;;7.40;4.13;;;;;;;;;;4923215;29;20374;-70
2022/12/16 02:11:23;;;;;;;6.20;4.00;;;;;;;;;;4955121;29;20062;-70
2022/12/16 02:13:51;;;;;;;5.90;3.60;;;;;;;;;;4923206;29;20506;-70
2022/12/16 02:16:20;;;;;;;4.33;2.77;;;;;;;;;;4923086;29;20046;-70
2022/12/16 02:18:46;;;;;;;4.73;3.00;;;;;;;;;;4939032;29;20055;-70
2022/12/16 02:21:24;;;;;;;8.03;4.60;;;;;;;;;;4922957;29;20046;-70
2022/12/16 02:23:56;;;;;;;7.70;3.90;;;;;;;;;;4938942;29;20045;-72
2022/12/16 02:26:21;;;;;;;6.37;3.43;;;;;;;;;;4939067;29;20114;-70
2022/12/16 02:28:47;;;;;;;3.57;2.83;;;;;;;;;;4938823;29;20043;-71
2022/12/16 02:31:31;;;;;;;4.47;2.90;;;;;;;;;;4938826;29;20449;-71
2022/12/16 02:34:15;;;;;;;2.90;2.00;;;;;;;;;;4938660;29;20062;-71
2022/12/16 02:36:41;;;;;;;7.70;4.23;;;;;;;;;;4922745;29;20035;-70
2022/12/16 02:39:17;;;;;;;6.43;4.03;;;;;;;;;;4922930;29;20053;-73
2022/12/16 02:41:49;;;;;;;3.33;2.33;;;;;;;;;;4938371;29;20406;-71
2022/12/16 02:44:15;;;;;;;6.17;4.03;;;;;;;;;;4922662;29;20512;-71
2022/12/16 02:46:42;;;;;;;7.10;3.37;;;;;;;;;;4938839;29;20045;-72
2022/12/16 02:49:29;;;;;;;1.30;1.20;;;;;;;;;;4922812;29;20390;-72
2022/12/16 02:51:56;;;;;;;3.67;2.37;;;;;;;;;;4909421;29;20039;-72
2022/12/16 02:54:22;;;;;;;5.63;3.60;;;;;;;;;;4922206;29;20129;-71
2022/12/16 02:57:00;;;;;;;6.53;3.87;;;;;;;;;;4938109;29;20127;-70
2022/12/16 02:59:31;;;;;;;6.67;3.70;;;;;;;;;;4922512;29;20375;-70
2022/12/16 03:02:03;;;;;;;3.22;2.10;;;;;;;;;;4922193;29;20046;-70
2022/12/16 03:04:29;;;;;;;7.60;4.63;;;;;;;;;;4938273;29;20087;-70
2022/12/16 03:06:55;;;;;;;6.47;3.57;;;;;;;;;;4922148;28;20066;-70
2022/12/16 03:09:23;;;;;;;4.20;2.60;;;;;;;;;;4922113;29;20536;-70
2022/12/16 03:11:49;;;;;;;3.07;1.80;;;;;;;;;;4922158;29;20031;-69
2022/12/16 03:14:17;;;;;;;4.67;3.10;;;;;;;;;;4938032;29;20094;-69
2022/12/16 03:16:44;;;;;;;8.43;4.33;;;;;;;;;;4922076;29;20070;-69
2022/12/16 03:19:10;;;;;;;7.03;4.37;;;;;;;;;;4921827;29;20114;-73
2022/12/16 03:21:50;;;;;;;4.37;2.77;;;;;;;;;;4953786;29;20049;-70
2022/12/16 03:24:16;;;;;;;7.60;4.23;;;;;;;;;;4919888;29;20118;-70
2022/12/16 03:26:48;;;;;;;3.13;2.07;;;;;;;;;;4935353;29;20545;-72
2022/12/16 03:29:17;;;;;;;6.37;2.97;;;;;;;;;;4919658;29;20043;-70
2022/12/16 03:31:46;;;;;;;2.00;1.70;;;;;;;;;;4952386;28;20071;-71
2022/12/16 03:34:30;;;;;;;4.50;2.80;;;;;;;;;;4951305;29;20156;-70
2022/12/16 03:36:59;;;;;;;4.27;2.97;;;;;;;;;;4919302;29;20162;-71
2022/12/16 03:39:26;;;;;;;4.83;2.83;;;;;;;;;;4936833;29;20047;-71
2022/12/16 03:41:55;;;;;;;4.60;2.67;;;;;;;;;;4937192;29;20055;-71
2022/12/16 03:44:21;;;;;;;5.87;3.30;;;;;;;;;;4921618;29;20051;-70
2022/12/16 03:46:47;;;;;;;5.70;3.60;;;;;;;;;;4937313;29;20047;-71
2022/12/16 03:49:13;;;;;;;6.27;3.63;;;;;;;;;;4937162;29;20128;-71
2022/12/16 03:51:38;;;;;;;6.03;2.70;;;;;;;;;;4921524;29;20038;-71
2022/12/16 03:54:04;;;;;;;4.10;2.87;;;;;;;;;;4921418;29;20043;-70
2022/12/16 03:56:30;;;;;;;4.30;2.63;;;;;;;;;;4936960;29;20042;-71
2022/12/16 03:58:59;;;;;;;1.67;1.50;;;;;;;;;;4921383;29;20047;-71
2022/12/16 04:01:24;;;;;;;5.23;3.40;;;;;;;;;;4921394;29;20035;-72
2022/12/16 04:03:50;;;;;;;6.80;3.03;;;;;;;;;;4920858;29;20062;-71
2022/12/16 04:06:17;;;;;;;5.07;3.40;;;;;;;;;;4921101;29;20071;-72
2022/12/16 04:08:44;;;;;;;4.10;2.67;;;;;;;;;;4921245;29;20446;-72
2022/12/16 04:25:16;;;;;;;2.33;1.80;;;;;;;;;;4937261;29;20043;-72
2022/12/16 04:27:46;;;;;;;1.13;1.00;;;;;;;;;;4920891;29;20117;-73
2022/12/16 04:30:19;;;;;;;0.97;0.97;;;;;;;;;;4920708;29;20130;-72
